createdAt,value
2022-08-16T00:00:03.309Z,100746.78
2022-08-16T00:02:32.269Z,100755.19
2022-08-16T00:05:00.234Z,100743.63
2022-08-16T00:07:30.210Z,100744.84
2022-08-16T00:09:59.437Z,100739.25
2022-08-16T00:12:30.150Z,100740.06
2022-08-16T00:15:00.041Z,100745.38
2022-08-16T00:17:28.258Z,100741.13
2022-08-16T00:19:56.313Z,100733.28
2022-08-16T00:22:25.374Z,100730.56
2022-08-16T00:24:54.698Z,100724.25
2022-08-16T00:27:23.466Z,100715.03
2022-08-16T00:30:08.278Z,100715.81
2022-08-16T00:32:41.677Z,100704.97
2022-08-16T00:35:16.031Z,100707.03
2022-08-16T00:37:57.274Z,100700.59
2022-08-16T00:40:43.551Z,100698.63
2022-08-16T00:43:19.350Z,100696.25
2022-08-16T00:45:58.069Z,100700.31
2022-08-16T00:48:30.950Z,100705.91
2022-08-16T00:51:03.934Z,100704.34
2022-08-16T00:53:33.317Z,100712.38
2022-08-16T00:56:05.709Z,100716.84
2022-08-16T00:58:35.534Z,100721.69
2022-08-16T01:01:08.496Z,100703.69
2022-08-16T01:03:41.585Z,100697.41
2022-08-16T01:06:32.525Z,100701.03
2022-08-16T01:09:01.709Z,100708.25
2022-08-16T01:11:31.457Z,100716.66
2022-08-16T01:14:29.859Z,100725.09
2022-08-16T01:17:00.206Z,100738.22
2022-08-16T01:19:40.846Z,100731.03
2022-08-16T01:22:48.592Z,100736.56
2022-08-16T01:25:19.002Z,100755.72
2022-08-16T01:27:53.259Z,100753.34
2022-08-16T01:30:34.615Z,100738.97
2022-08-16T01:33:14.378Z,100732.91
2022-08-16T01:36:02.031Z,100733.75
2022-08-16T01:38:46.952Z,100736.22
2022-08-16T01:41:25.918Z,100744.59
2022-08-16T01:44:00.877Z,100747.13
2022-08-16T01:46:40.823Z,100755.97
2022-08-16T01:49:43.086Z,100750.88
2022-08-16T01:52:29.830Z,100751.75
2022-08-16T01:55:17.736Z,100752.22
2022-08-16T01:57:53.461Z,100736.72
2022-08-16T02:00:29.354Z,100734.75
2022-08-16T02:02:59.610Z,100736.41
2022-08-16T02:05:30.559Z,100738.00
2022-08-16T02:08:00.980Z,100746.03
2022-08-16T02:10:29.341Z,100738.09
2022-08-16T02:13:00.692Z,100758.06
2022-08-16T02:15:40.287Z,100771.63
2022-08-16T02:18:12.830Z,100776.44
2022-08-16T02:20:45.561Z,100765.66
2022-08-16T02:23:17.213Z,100774.03
2022-08-16T02:25:51.845Z,100760.47
2022-08-16T02:28:23.625Z,100757.69
2022-08-16T02:30:53.013Z,100758.91
2022-08-16T02:33:44.679Z,100753.72
2022-08-16T02:36:36.636Z,100762.16
2022-08-16T02:39:09.886Z,100766.16
2022-08-16T02:41:39.540Z,100755.41
2022-08-16T02:44:13.674Z,100754.19
2022-08-16T02:46:50.684Z,100757.81
2022-08-16T02:49:22.061Z,100749.44
2022-08-16T02:51:59.695Z,100748.63
2022-08-16T02:54:29.259Z,100747.06
2022-08-16T02:56:56.942Z,100734.31
2022-08-16T02:59:24.442Z,100732.72
2022-08-16T03:01:51.919Z,100735.50
2022-08-16T03:04:50.241Z,100741.47
2022-08-16T03:07:16.140Z,100743.09
2022-08-16T03:09:55.379Z,100741.13
2022-08-16T03:12:30.103Z,100743.13
2022-08-16T03:14:59.380Z,100737.97
2022-08-16T03:17:32.273Z,100742.75
2022-08-16T03:20:04.742Z,100744.72
2022-08-16T03:22:36.598Z,100748.31
2022-08-16T03:25:11.785Z,100753.47
2022-08-16T03:27:42.911Z,100739.13
2022-08-16T03:30:20.311Z,100747.50
2022-08-16T03:32:52.412Z,100747.88
2022-08-16T03:35:33.041Z,100735.16
2022-08-16T03:38:33.638Z,100708.03
2022-08-16T03:41:17.210Z,100725.59
2022-08-16T03:43:57.103Z,100726.41
2022-08-16T03:46:47.882Z,100731.59
2022-08-16T03:49:35.781Z,100735.56
2022-08-16T03:52:05.994Z,100753.09
2022-08-16T03:54:36.020Z,100743.94
2022-08-16T03:57:05.104Z,100737.97
2022-08-16T03:59:34.150Z,100739.94
2022-08-16T04:02:22.556Z,100736.00
2022-08-16T04:04:59.380Z,100745.91
2022-08-16T04:07:26.500Z,100749.88
2022-08-16T04:10:35.926Z,100746.69
2022-08-16T04:12:54.403Z,100740.31
2022-08-16T04:15:24.538Z,100739.13
2022-08-16T04:18:10.083Z,100739.97
2022-08-16T04:20:39.569Z,100739.56
2022-08-16T04:23:09.340Z,100740.75
2022-08-16T04:25:39.439Z,100746.34
2022-08-16T04:28:51.596Z,100749.50
2022-08-16T04:30:57.425Z,100747.09
2022-08-16T04:33:27.085Z,100747.88
2022-08-16T04:35:58.752Z,100745.47
2022-08-16T04:38:27.769Z,100741.84
2022-08-16T04:40:58.567Z,100749.00
2022-08-16T04:43:27.178Z,100747.00
2022-08-16T04:46:03.150Z,100753.72
2022-08-16T04:48:40.804Z,100743.75
2022-08-16T04:51:12.748Z,100754.88
2022-08-16T04:53:49.552Z,100756.47
2022-08-16T04:56:20.253Z,100762.34
2022-08-16T04:58:48.982Z,100772.19
2022-08-16T05:01:18.199Z,100765.63
2022-08-16T05:03:59.739Z,100768.66
2022-08-16T05:06:45.134Z,100774.06
2022-08-16T05:09:23.133Z,100764.25
2022-08-16T05:11:57.522Z,100765.53
2022-08-16T05:14:46.496Z,100761.81
2022-08-16T05:17:24.722Z,100767.94
2022-08-16T05:19:57.943Z,100766.94
2022-08-16T05:22:30.427Z,100779.63
2022-08-16T05:25:02.470Z,100789.66
2022-08-16T05:27:42.937Z,100795.19
2022-08-16T05:30:35.177Z,100791.13
2022-08-16T05:33:06.397Z,100796.63
2022-08-16T05:35:36.943Z,100786.59
2022-08-16T05:38:30.880Z,100796.50
2022-08-16T05:41:05.295Z,100799.88
2022-08-16T05:46:34.060Z,100806.22
2022-08-16T05:49:18.025Z,100812.50
2022-08-16T05:51:55.396Z,100815.56
2022-08-16T05:54:25.079Z,100818.06
2022-08-16T05:56:57.390Z,100825.53
2022-08-16T05:59:27.571Z,100815.16
2022-08-16T06:01:57.217Z,100826.88
2022-08-16T06:04:35.196Z,100821.16
2022-08-16T06:07:24.575Z,100815.44
2022-08-16T06:10:02.559Z,100812.50
2022-08-16T06:12:33.161Z,100814.00
2022-08-16T06:15:10.223Z,100812.31
2022-08-16T06:17:44.186Z,100812.69
2022-08-16T06:20:35.574Z,100814.44
2022-08-16T06:23:18.113Z,100814.44
2022-08-16T06:26:11.392Z,100812.81
2022-08-16T06:28:42.667Z,100803.88
2022-08-16T06:31:24.579Z,100806.16
2022-08-16T06:33:55.182Z,100818.63
2022-08-16T06:36:24.353Z,100818.09
2022-08-16T06:39:05.045Z,100816.66
2022-08-16T06:42:00.353Z,100810.06
2022-08-16T06:45:00.494Z,100809.66
2022-08-16T06:47:54.365Z,100808.13
2022-08-16T06:50:28.792Z,100808.41
2022-08-16T06:53:19.762Z,100818.78
2022-08-16T06:56:00.854Z,100817.31
2022-08-16T06:58:40.745Z,100826.91
2022-08-16T07:01:14.831Z,100839.19
2022-08-16T07:03:55.756Z,100833.72
2022-08-16T07:06:31.677Z,100817.41
2022-08-16T07:09:09.730Z,100822.19
2022-08-16T07:11:45.617Z,100824.59
2022-08-16T07:14:26.375Z,100829.25
2022-08-16T07:16:59.068Z,100833.31
2022-08-16T07:20:01.616Z,100832.22
2022-08-16T07:22:37.742Z,100836.31
2022-08-16T07:25:11.788Z,100835.16
2022-08-16T07:27:40.475Z,100844.81
2022-08-16T07:30:39.112Z,100843.59
2022-08-16T07:33:02.609Z,100844.97
2022-08-16T07:35:30.054Z,100833.50
2022-08-16T07:37:58.615Z,100833.25
2022-08-16T07:40:58.049Z,100825.84
2022-08-16T07:43:18.892Z,100821.72
2022-08-16T07:45:53.229Z,100816.34
2022-08-16T07:48:21.830Z,100805.97
2022-08-16T07:50:59.178Z,100807.00
2022-08-16T07:53:31.133Z,100814.47
2022-08-16T07:56:04.401Z,100803.88
2022-08-16T07:58:38.618Z,100803.72
2022-08-16T08:01:12.521Z,100797.88
2022-08-16T08:03:51.883Z,100784.53
2022-08-16T08:06:28.867Z,100795.53
2022-08-16T08:09:00.834Z,100795.06
2022-08-16T08:11:30.645Z,100795.38
2022-08-16T08:14:03.316Z,100812.16
2022-08-16T08:16:36.452Z,100800.28
2022-08-16T08:19:12.477Z,100802.44
2022-08-16T08:21:59.978Z,100800.78
2022-08-16T08:24:39.127Z,100796.69
2022-08-16T08:27:13.263Z,100808.38
2022-08-16T08:30:49.610Z,100805.13
2022-08-16T08:33:00.020Z,100797.84
2022-08-16T08:35:33.424Z,100792.16
2022-08-16T08:38:03.975Z,100797.66
2022-08-16T08:40:35.944Z,100792.25
2022-08-16T08:43:11.751Z,100789.56
2022-08-16T08:45:47.116Z,100793.28
2022-08-16T08:48:34.282Z,100803.00
2022-08-16T08:51:11.787Z,100806.66
2022-08-16T08:53:57.259Z,100808.72
2022-08-16T08:56:32.216Z,100819.59
2022-08-16T08:59:22.437Z,100815.19
2022-08-16T09:01:57.773Z,100814.84
2022-08-16T09:04:33.122Z,100819.28
2022-08-16T09:07:04.221Z,100813.69
2022-08-16T09:09:34.299Z,100815.41
2022-08-16T09:12:35.650Z,100812.94
2022-08-16T09:15:05.475Z,100820.88
2022-08-16T09:17:51.609Z,100818.81
2022-08-16T09:20:25.988Z,100824.28
2022-08-16T09:22:54.589Z,100816.94
2022-08-16T09:25:39.356Z,100819.06
2022-08-16T09:29:13.457Z,100818.75
2022-08-16T09:31:08.684Z,100817.00
2022-08-16T09:33:39.222Z,100823.94
2022-08-16T09:36:12.127Z,100832.69
2022-08-16T09:39:00.009Z,100832.19
2022-08-16T09:41:28.120Z,100838.84
2022-08-16T09:43:59.976Z,100826.75
2022-08-16T09:46:45.064Z,100831.44
2022-08-16T09:49:19.725Z,100832.38
2022-08-16T09:51:54.298Z,100825.03
2022-08-16T09:54:24.313Z,100829.78
2022-08-16T09:57:00.350Z,100824.06
2022-08-16T09:59:30.661Z,100829.00
2022-08-16T10:01:58.343Z,100820.19
2022-08-16T10:04:30.927Z,100816.63
2022-08-16T10:07:15.114Z,100819.41
2022-08-16T10:09:55.095Z,100820.06
2022-08-16T10:12:45.409Z,100814.59
2022-08-16T10:15:21.154Z,100813.53
2022-08-16T10:18:00.780Z,100805.72
2022-08-16T10:20:34.144Z,100813.94
2022-08-16T10:23:07.206Z,100821.53
2022-08-16T10:27:19.946Z,100821.28
2022-08-16T10:28:32.325Z,100828.94
2022-08-16T10:31:07.999Z,100833.84
2022-08-16T10:33:40.385Z,100830.66
2022-08-16T10:36:09.335Z,100832.75
2022-08-16T10:38:41.978Z,100836.13
2022-08-16T10:41:11.328Z,100838.31
2022-08-16T10:43:43.613Z,100842.50
2022-08-16T10:46:39.086Z,100845.38
2022-08-16T10:49:00.999Z,100842.22
2022-08-16T10:51:34.410Z,100836.34
2022-08-16T10:54:29.499Z,100843.03
2022-08-16T10:57:04.135Z,100843.38
2022-08-16T10:59:43.937Z,100845.38
2022-08-16T11:02:59.635Z,100847.38
2022-08-16T11:05:11.891Z,100845.53
2022-08-16T11:07:42.994Z,100839.59
2022-08-16T11:10:21.165Z,100843.03
2022-08-16T11:15:55.505Z,100835.00
2022-08-16T11:19:04.873Z,100825.84
2022-08-16T11:21:29.192Z,100827.66
2022-08-16T11:23:59.560Z,100835.22
2022-08-16T11:26:27.582Z,100836.25
2022-08-16T11:29:13.179Z,100826.19
2022-08-16T11:31:45.710Z,100838.78
2022-08-16T11:34:21.149Z,100833.72
2022-08-16T11:36:53.765Z,100846.81
2022-08-16T11:39:28.263Z,100846.72
2022-08-16T11:41:55.839Z,100852.63
2022-08-16T11:44:36.584Z,100852.41
2022-08-16T11:47:10.463Z,100845.66
2022-08-16T11:49:37.872Z,100845.09
2022-08-16T11:52:05.897Z,100840.38
2022-08-16T11:54:36.626Z,100838.94
2022-08-16T11:57:09.375Z,100850.31
2022-08-16T11:59:39.941Z,100841.78
2022-08-16T12:02:32.192Z,100845.75
2022-08-16T12:04:57.155Z,100843.72
2022-08-16T12:07:24.434Z,100837.13
2022-08-16T12:09:53.470Z,100833.78
2022-08-16T12:12:23.410Z,100836.25
2022-08-16T12:15:00.007Z,100838.97
2022-08-16T12:17:31.649Z,100836.34
2022-08-16T12:20:01.086Z,100845.88
2022-08-16T12:22:29.311Z,100843.09
2022-08-16T12:24:56.851Z,100847.50
2022-08-16T12:27:26.246Z,100847.22
2022-08-16T12:29:58.418Z,100839.94
2022-08-16T12:32:36.184Z,100833.97
2022-08-16T12:35:10.068Z,100851.34
2022-08-16T12:37:37.706Z,100848.25
2022-08-16T12:40:23.872Z,100845.06
2022-08-16T12:42:58.386Z,100845.03
2022-08-16T12:45:29.780Z,100851.59
2022-08-16T12:48:34.425Z,100846.28
2022-08-16T12:51:13.543Z,100843.72
2022-08-16T12:53:53.909Z,100850.16
2022-08-16T12:56:25.159Z,100855.34
2022-08-16T12:58:56.071Z,100857.66
2022-08-16T13:01:29.720Z,100849.59
2022-08-16T13:04:20.537Z,100845.81
2022-08-16T13:06:48.799Z,100855.97
2022-08-16T13:09:21.526Z,100872.81
2022-08-16T13:12:07.724Z,100858.44
2022-08-16T13:14:41.179Z,100853.72
2022-08-16T13:17:17.003Z,100859.59
2022-08-16T13:20:08.612Z,100849.06
2022-08-16T13:22:50.627Z,100847.56
2022-08-16T13:25:24.834Z,100837.81
2022-08-16T13:28:15.230Z,100849.94
2022-08-16T13:30:46.166Z,100845.81
2022-08-16T13:33:18.989Z,100841.59
2022-08-16T13:35:58.405Z,100838.09
2022-08-16T13:38:37.283Z,100829.50
2022-08-16T13:41:08.819Z,100840.09
2022-08-16T13:43:38.600Z,100834.69
2022-08-16T13:46:07.562Z,100839.06
2022-08-16T13:48:42.686Z,100829.78
2022-08-16T13:51:18.734Z,100826.47
2022-08-16T13:53:54.433Z,100830.13
2022-08-16T13:56:34.464Z,100831.59
2022-08-16T13:59:14.207Z,100826.84
2022-08-16T14:01:56.681Z,100831.59
2022-08-16T14:04:33.088Z,100830.59
2022-08-16T14:07:02.372Z,100832.34
2022-08-16T14:09:31.942Z,100827.97
2022-08-16T14:12:00.974Z,100829.22
2022-08-16T14:14:32.393Z,100828.75
2022-08-16T14:17:02.277Z,100831.69
2022-08-16T14:19:30.503Z,100829.34
2022-08-16T14:22:14.354Z,100833.03
2022-08-16T14:24:47.244Z,100839.38
2022-08-16T14:27:23.293Z,100832.69
2022-08-16T14:29:51.993Z,100840.69
2022-08-16T14:32:33.687Z,100836.38
2022-08-16T14:35:07.137Z,100835.78
2022-08-16T14:37:35.569Z,100840.00
2022-08-16T14:40:04.067Z,100850.06
2022-08-16T14:42:32.574Z,100839.81
2022-08-16T14:45:05.345Z,100856.78
2022-08-16T14:47:34.311Z,100846.88
2022-08-16T14:50:03.199Z,100848.06
2022-08-16T14:55:21.990Z,100836.66
2022-08-16T14:57:49.624Z,100841.25
2022-08-16T15:00:32.918Z,100846.25
2022-08-16T15:03:05.976Z,100841.59
2022-08-16T15:05:34.001Z,100843.22
2022-08-16T15:08:02.766Z,100841.84
2022-08-16T15:10:32.231Z,100853.44
2022-08-16T15:13:01.350Z,100857.50
2022-08-16T15:15:30.327Z,100843.94
2022-08-16T15:17:57.722Z,100843.88
2022-08-16T15:20:29.489Z,100835.69
2022-08-16T15:22:59.120Z,100833.81
2022-08-16T15:25:33.307Z,100827.72
2022-08-16T15:28:05.588Z,100819.09
2022-08-16T15:30:59.752Z,100821.44
2022-08-16T15:33:25.809Z,100808.94
2022-08-16T15:35:55.213Z,100799.47
2022-08-16T15:38:57.528Z,100792.81
2022-08-16T15:41:10.654Z,100797.81
2022-08-16T15:43:40.601Z,100793.41
2022-08-16T15:46:35.593Z,100800.63
2022-08-16T15:49:14.622Z,100790.53
2022-08-16T15:51:43.544Z,100791.13
2022-08-16T15:54:29.106Z,100788.38
2022-08-16T15:57:04.320Z,100793.34
2022-08-16T15:59:49.523Z,100787.56
2022-08-16T16:02:27.396Z,100797.50
2022-08-16T16:05:00.699Z,100797.31
2022-08-16T16:07:30.164Z,100808.81
2022-08-16T16:09:59.515Z,100813.25
2022-08-16T16:12:53.225Z,100811.09
2022-08-16T16:15:22.768Z,100809.63
2022-08-16T16:17:53.622Z,100816.69
2022-08-16T16:20:27.557Z,100809.94
2022-08-16T16:22:57.876Z,100809.16
2022-08-16T16:25:27.324Z,100811.31
2022-08-16T16:27:59.570Z,100811.75
2022-08-16T16:30:33.185Z,100809.88
2022-08-16T16:33:15.866Z,100803.72
2022-08-16T16:35:55.174Z,100801.59
2022-08-16T16:38:31.049Z,100800.63
2022-08-16T16:41:00.200Z,100802.66
2022-08-16T16:43:31.799Z,100802.94
2022-08-16T16:46:01.659Z,100806.88
2022-08-16T16:48:34.942Z,100804.53
2022-08-16T16:51:09.346Z,100802.50
2022-08-16T16:53:41.521Z,100806.25
2022-08-16T16:56:19.543Z,100807.91
2022-08-16T16:59:01.054Z,100817.69
2022-08-16T17:01:56.858Z,100822.22
2022-08-16T17:04:32.563Z,100812.38
2022-08-16T17:07:02.973Z,100815.28
2022-08-16T17:09:30.965Z,100813.91
2022-08-16T17:11:59.549Z,100809.25
2022-08-16T17:14:33.709Z,100812.16
2022-08-16T17:17:09.001Z,100818.22
2022-08-16T17:19:41.650Z,100809.44
2022-08-16T17:22:16.367Z,100822.91
2022-08-16T17:24:52.625Z,100822.41
2022-08-16T17:27:33.104Z,100821.53
2022-08-16T17:30:15.087Z,100812.22
2022-08-16T17:32:54.634Z,100816.31
2022-08-16T17:35:34.316Z,100815.03
2022-08-16T17:38:08.915Z,100822.41
2022-08-16T17:40:55.578Z,100816.41
2022-08-16T17:43:36.023Z,100815.25
2022-08-16T17:46:05.199Z,100810.09
2022-08-16T17:48:52.439Z,100812.34
2022-08-16T17:51:20.575Z,100819.38
2022-08-16T17:53:50.535Z,100822.31
2022-08-16T17:56:18.083Z,100828.44
2022-08-16T17:58:45.323Z,100835.78
2022-08-16T18:01:13.181Z,100831.91
2022-08-16T18:04:06.996Z,100838.34
2022-08-16T18:06:29.812Z,100834.28
2022-08-16T18:09:03.716Z,100834.91
2022-08-16T18:11:40.870Z,100842.47
2022-08-16T18:14:09.952Z,100845.28
2022-08-16T18:16:37.070Z,100853.16
2022-08-16T18:19:05.704Z,100868.13
2022-08-16T18:21:51.940Z,100869.06
2022-08-16T18:24:19.610Z,100870.81
2022-08-16T18:26:46.765Z,100876.47
2022-08-16T18:29:14.276Z,100863.69
2022-08-16T18:31:41.458Z,100880.69
2022-08-16T18:34:08.711Z,100872.69
2022-08-16T18:36:37.303Z,100881.25
2022-08-16T18:39:06.104Z,100882.88
2022-08-16T18:41:38.182Z,100878.84
2022-08-16T18:44:26.445Z,100887.34
2022-08-16T18:46:55.342Z,100884.03
2022-08-16T18:49:22.591Z,100895.97
2022-08-16T18:51:51.045Z,100898.72
2022-08-16T18:54:18.662Z,100900.38
2022-08-16T18:56:55.744Z,100907.69
2022-08-16T18:59:29.575Z,100903.00
2022-08-16T19:02:04.546Z,100907.81
2022-08-16T19:04:57.438Z,100903.06
2022-08-16T19:07:30.443Z,100917.63
2022-08-16T19:10:02.320Z,100932.13
2022-08-16T19:12:38.206Z,100928.97
2022-08-16T19:15:15.611Z,100932.28
2022-08-16T19:17:44.501Z,100928.31
2022-08-16T19:20:15.764Z,100927.16
2022-08-16T19:23:05.102Z,100934.31
2022-08-16T19:25:47.225Z,100941.16
2022-08-16T19:28:57.929Z,100947.28
2022-08-16T19:31:23.753Z,100948.84
2022-08-16T19:33:55.590Z,100969.00
2022-08-16T19:36:33.948Z,100970.25
2022-08-16T19:39:10.864Z,100982.63
2022-08-16T19:41:41.077Z,100988.28
2022-08-16T19:44:08.891Z,100987.94
2022-08-16T19:46:37.882Z,100991.19
2022-08-16T19:49:05.647Z,100984.41
2022-08-16T19:51:33.018Z,100974.78
2022-08-16T19:54:00.981Z,100981.66
2022-08-16T19:56:28.131Z,100970.06
2022-08-16T19:59:18.207Z,100977.69
2022-08-16T20:01:44.416Z,100985.72
2022-08-16T20:04:12.985Z,100985.63
2022-08-16T20:06:41.723Z,100979.59
2022-08-16T20:09:10.971Z,100973.75
2022-08-16T20:11:44.525Z,100956.69
2022-08-16T20:14:24.381Z,100942.50
2022-08-16T20:16:57.276Z,100955.00
2022-08-16T20:19:27.654Z,100951.53
2022-08-16T20:22:00.041Z,100964.75
2022-08-16T20:24:34.685Z,100962.78
2022-08-16T20:27:06.372Z,100957.56
2022-08-16T20:29:35.715Z,100951.97
2022-08-16T20:32:07.241Z,100949.94
2022-08-16T20:34:35.189Z,100953.13
2022-08-16T20:37:02.405Z,100949.84
2022-08-16T20:39:29.728Z,100950.63
2022-08-16T20:41:56.894Z,100941.41
2022-08-16T20:44:25.169Z,100933.75
2022-08-16T20:46:53.059Z,100925.78
2022-08-16T20:49:21.530Z,100921.03
2022-08-16T20:51:51.795Z,100914.63
2022-08-16T20:54:22.315Z,100914.63
2022-08-16T20:56:49.951Z,100913.00
2022-08-16T20:59:19.429Z,100915.41
2022-08-16T21:01:50.567Z,100919.34
2022-08-16T21:04:25.646Z,100918.50
2022-08-16T21:06:53.622Z,100914.47
2022-08-16T21:09:26.972Z,100918.00
2022-08-16T21:11:56.139Z,100915.16
2022-08-16T21:14:24.219Z,100919.53
2022-08-16T21:16:51.702Z,100918.16
2022-08-16T21:19:19.887Z,100925.63
2022-08-16T21:21:47.453Z,100916.38
2022-08-16T21:24:15.054Z,100917.97
2022-08-16T21:26:49.837Z,100923.88
2022-08-16T21:29:24.823Z,100926.06
2022-08-16T21:31:52.520Z,100931.50
2022-08-16T21:34:19.731Z,100922.06
2022-08-16T21:36:46.843Z,100924.94
2022-08-16T21:39:14.022Z,100924.25
2022-08-16T21:41:41.190Z,100928.81
2022-08-16T21:44:08.401Z,100935.72
2022-08-16T21:46:35.812Z,100940.94
2022-08-16T21:49:04.877Z,100938.53
2022-08-16T21:51:32.129Z,100930.97
2022-08-16T21:53:59.529Z,100939.38
2022-08-16T21:56:26.947Z,100934.97
2022-08-16T21:58:54.273Z,100936.56
2022-08-16T22:01:23.438Z,100939.41
2022-08-16T22:04:35.278Z,100944.25
2022-08-16T22:06:40.308Z,100942.94
2022-08-16T22:09:08.845Z,100940.06
2022-08-16T22:11:36.763Z,100940.41
2022-08-16T22:14:04.815Z,100933.97
2022-08-16T22:16:37.829Z,100933.94
2022-08-16T22:19:06.070Z,100931.53
2022-08-16T22:21:34.350Z,100939.09
2022-08-16T22:24:01.778Z,100930.69
2022-08-16T22:26:32.201Z,100926.69
2022-08-16T22:29:05.808Z,100936.25
2022-08-16T22:31:33.423Z,100935.03
2022-08-16T22:34:02.177Z,100928.66
2022-08-16T22:36:31.189Z,100917.16
2022-08-16T22:39:00.192Z,100927.47
2022-08-16T22:41:29.305Z,100933.88
2022-08-16T22:43:56.576Z,100928.34
2022-08-16T22:46:24.651Z,100939.97
2022-08-16T22:48:51.906Z,100942.78
2022-08-16T22:51:21.334Z,100934.81
2022-08-16T22:53:48.816Z,100932.00
2022-08-16T22:56:16.162Z,100926.41
2022-08-16T22:58:44.666Z,100930.00
2022-08-16T23:01:12.939Z,100925.97
2022-08-16T23:03:40.646Z,100931.22
2022-08-16T23:06:11.279Z,100920.13
2022-08-16T23:08:40.776Z,100920.16
2022-08-16T23:11:15.427Z,100917.34
2022-08-16T23:13:53.149Z,100914.03
2022-08-16T23:16:33.208Z,100912.81
2022-08-16T23:19:06.290Z,100907.69
2022-08-16T23:21:35.054Z,100891.31
2022-08-16T23:24:03.061Z,100887.81
2022-08-16T23:26:36.429Z,100882.69
2022-08-16T23:29:19.805Z,100872.03
2022-08-16T23:31:50.568Z,100868.06
2022-08-16T23:34:21.773Z,100868.06
2022-08-16T23:36:49.209Z,100863.28
2022-08-16T23:39:16.521Z,100861.72
2022-08-16T23:41:45.725Z,100859.78
2022-08-16T23:44:56.743Z,100858.28
2022-08-16T23:47:00.133Z,100840.47
2022-08-16T23:49:57.445Z,100841.75
2022-08-16T23:52:17.623Z,100838.22
2022-08-16T23:54:44.844Z,100839.44
2022-08-16T23:57:14.495Z,100837.50
2022-08-16T23:59:52.224Z,100838.69
